createdAt,value
2023-04-12T00:01:41.570Z,7.80
2023-04-12T00:04:08.332Z,7.90
2023-04-12T00:06:36.216Z,7.90
2023-04-12T00:09:04.125Z,7.90
2023-04-12T00:11:31.897Z,7.90
2023-04-12T00:13:58.674Z,7.90
2023-04-12T00:16:25.677Z,7.80
2023-04-12T00:18:52.372Z,7.90
2023-04-12T00:21:19.721Z,7.90
2023-04-12T00:23:47.409Z,7.90
2023-04-12T00:26:15.285Z,7.90
2023-04-12T00:28:42.699Z,7.90
2023-04-12T00:31:09.423Z,7.80
2023-04-12T00:33:36.161Z,7.90
2023-04-12T00:36:02.967Z,7.90
2023-04-12T00:38:29.672Z,8.00
2023-04-12T00:40:56.326Z,7.90
2023-04-12T00:43:23.838Z,8.00
2023-04-12T00:45:51.133Z,8.00
2023-04-12T00:48:18.982Z,8.00
2023-04-12T00:50:46.620Z,8.00
2023-04-12T00:53:14.930Z,8.10
2023-04-12T00:55:44.958Z,8.10
2023-04-12T00:58:12.029Z,8.10
2023-04-12T01:00:38.761Z,8.20
2023-04-12T01:03:05.968Z,8.20
2023-04-12T01:05:40.677Z,8.20
2023-04-12T01:08:28.168Z,8.20
2023-04-12T01:10:59.176Z,8.30
2023-04-12T01:13:41.758Z,8.40
2023-04-12T01:16:37.625Z,8.50
2023-04-12T01:19:13.665Z,8.50
2023-04-12T01:22:02.539Z,8.60
2023-04-12T01:25:03.735Z,8.50
2023-04-12T01:27:36.307Z,8.50
2023-04-12T01:30:12.974Z,8.50
2023-04-12T01:32:42.591Z,8.60
2023-04-12T01:35:11.631Z,8.50
2023-04-12T01:37:38.376Z,8.50
2023-04-12T01:40:05.972Z,8.50
2023-04-12T01:42:33.419Z,8.60
2023-04-12T01:45:00.210Z,8.60
2023-04-12T01:47:27.583Z,8.60
2023-04-12T01:50:09.187Z,8.60
2023-04-12T01:52:41.926Z,8.70
2023-04-12T01:55:12.249Z,8.70
2023-04-12T01:57:41.228Z,8.70
2023-04-12T02:00:10.652Z,8.60
2023-04-12T02:02:37.910Z,8.70
2023-04-12T02:05:07.992Z,8.70
2023-04-12T02:07:35.902Z,8.70
2023-04-12T02:10:02.830Z,8.70
2023-04-12T02:12:29.537Z,8.70
2023-04-12T02:14:58.136Z,8.70
2023-04-12T02:17:24.861Z,8.70
2023-04-12T02:19:51.556Z,8.70
2023-04-12T02:22:18.198Z,8.70
2023-04-12T02:24:44.825Z,8.70
2023-04-12T02:27:11.534Z,8.60
2023-04-12T02:29:38.249Z,8.60
2023-04-12T02:32:05.028Z,8.70
2023-04-12T02:34:34.357Z,8.60
2023-04-12T02:37:01.027Z,8.60
2023-04-12T02:39:29.175Z,8.70
2023-04-12T02:41:57.022Z,8.70
2023-04-12T02:44:23.776Z,8.70
2023-04-12T02:46:50.443Z,8.70
2023-04-12T02:49:17.110Z,8.80
2023-04-12T02:51:44.342Z,8.70
2023-04-12T02:54:11.264Z,8.70
2023-04-12T02:56:38.009Z,8.70
2023-04-12T02:59:04.813Z,8.70
2023-04-12T03:01:32.169Z,8.70
2023-04-12T03:03:59.196Z,8.60
2023-04-12T03:06:26.087Z,8.60
2023-04-12T03:08:52.705Z,8.50
2023-04-12T03:11:19.299Z,8.50
2023-04-12T03:13:46.221Z,8.50
2023-04-12T03:16:29.864Z,8.50
2023-04-12T03:18:56.822Z,8.50
2023-04-12T03:21:23.501Z,8.50
2023-04-12T03:23:50.267Z,8.50
2023-04-12T03:26:20.321Z,8.50
2023-04-12T03:28:48.004Z,8.50
2023-04-12T03:31:15.416Z,8.50
2023-04-12T03:33:42.124Z,8.50
2023-04-12T03:36:09.813Z,8.60
2023-04-12T03:38:36.424Z,8.50
2023-04-12T03:41:03.093Z,8.60
2023-04-12T03:43:35.792Z,8.50
2023-04-12T03:46:03.759Z,8.50
2023-04-12T03:48:30.741Z,8.50
2023-04-12T03:50:59.944Z,8.50
2023-04-12T03:53:33.157Z,8.60
2023-04-12T03:55:59.859Z,8.50
2023-04-12T03:58:26.668Z,8.50
2023-04-12T04:00:53.369Z,8.50
2023-04-12T04:03:20.296Z,8.50
2023-04-12T04:05:47.724Z,8.50
2023-04-12T04:08:14.498Z,8.50
2023-04-12T04:10:41.171Z,8.50
2023-04-12T04:13:07.829Z,8.50
2023-04-12T04:15:34.559Z,8.40
2023-04-12T04:18:01.530Z,8.40
2023-04-12T04:20:28.292Z,8.40
2023-04-12T04:22:54.952Z,8.40
2023-04-12T04:25:21.881Z,8.40
2023-04-12T04:27:49.471Z,8.30
2023-04-12T04:30:16.926Z,8.20
2023-04-12T04:32:43.650Z,8.20
2023-04-12T04:35:10.522Z,8.20
2023-04-12T04:37:37.396Z,8.20
2023-04-12T04:40:08.511Z,8.20
2023-04-12T04:42:35.376Z,8.10
2023-04-12T04:45:12.569Z,8.10
2023-04-12T04:47:39.965Z,8.10
2023-04-12T04:50:07.485Z,8.50
2023-04-12T04:52:34.175Z,8.10
2023-04-12T04:55:00.806Z,8.10
2023-04-12T04:57:27.548Z,8.00
2023-04-12T04:59:54.204Z,8.00
2023-04-12T05:02:21.448Z,8.00
2023-04-12T05:04:48.194Z,8.00
2023-04-12T05:07:15.382Z,8.00
2023-04-12T05:09:42.045Z,7.90
2023-04-12T05:12:08.721Z,8.00
2023-04-12T05:14:45.952Z,7.80
2023-04-12T05:17:14.523Z,7.90
2023-04-12T05:19:43.690Z,7.80
2023-04-12T05:22:10.938Z,7.80
2023-04-12T05:24:37.606Z,7.70
2023-04-12T05:27:04.281Z,7.80
2023-04-12T05:29:30.982Z,7.70
2023-04-12T05:31:58.777Z,7.70
2023-04-12T05:34:25.617Z,7.60
2023-04-12T05:36:52.245Z,7.60
2023-04-12T05:39:20.616Z,7.60
2023-04-12T05:41:47.562Z,7.60
2023-04-12T05:44:14.212Z,7.60
2023-04-12T05:46:40.967Z,7.60
2023-04-12T05:49:07.915Z,7.60
2023-04-12T05:51:41.016Z,7.60
2023-04-12T05:54:09.224Z,7.50
2023-04-12T05:56:36.047Z,7.50
2023-04-12T05:59:02.712Z,7.50
2023-04-12T06:01:32.432Z,7.50
2023-04-12T06:03:59.808Z,7.50
2023-04-12T06:06:30.140Z,7.50
2023-04-12T06:09:01.005Z,7.50
2023-04-12T06:11:27.763Z,7.50
2023-04-12T06:13:54.952Z,7.50
2023-04-12T06:16:21.608Z,7.50
2023-04-12T06:18:48.242Z,7.40
2023-04-12T06:21:14.937Z,7.40
2023-04-12T06:23:41.577Z,7.50
2023-04-12T06:26:09.145Z,7.50
2023-04-12T06:28:35.731Z,7.40
2023-04-12T06:31:02.460Z,7.40
2023-04-12T06:33:29.137Z,7.40
2023-04-12T06:35:55.971Z,7.40
2023-04-12T06:38:22.752Z,7.40
2023-04-12T06:40:49.416Z,7.40
2023-04-12T06:43:22.693Z,7.40
2023-04-12T06:45:52.573Z,7.30
2023-04-12T06:48:19.454Z,7.40
2023-04-12T06:50:46.148Z,7.40
2023-04-12T06:53:15.635Z,7.30
2023-04-12T06:55:42.468Z,7.30
2023-04-12T06:58:09.321Z,7.30
2023-04-12T07:00:36.055Z,7.30
2023-04-12T07:03:02.852Z,7.30
2023-04-12T07:05:29.614Z,7.30
2023-04-12T07:07:56.249Z,7.30
2023-04-12T07:10:23.062Z,7.30
2023-04-12T07:12:49.759Z,7.30
2023-04-12T07:15:16.469Z,7.30
2023-04-12T07:17:43.168Z,7.30
2023-04-12T07:20:10.773Z,7.30
2023-04-12T07:22:37.628Z,7.30
2023-04-12T07:25:09.913Z,7.30
2023-04-12T07:27:36.875Z,7.30
2023-04-12T07:30:04.202Z,7.30
2023-04-12T07:32:30.917Z,7.40
2023-04-12T07:34:57.614Z,7.40
2023-04-12T07:37:24.209Z,7.40
2023-04-12T07:39:51.211Z,7.40
2023-04-12T07:42:17.843Z,7.40
2023-04-12T07:44:44.477Z,7.30
2023-04-12T07:47:11.080Z,7.40
2023-04-12T07:49:37.781Z,7.50
2023-04-12T07:52:04.648Z,7.40
2023-04-12T07:54:31.349Z,7.50
2023-04-12T07:56:59.522Z,7.40
2023-04-12T07:59:26.283Z,7.40
2023-04-12T08:01:53.087Z,7.40
2023-04-12T08:04:20.018Z,7.40
2023-04-12T08:06:46.766Z,7.40
2023-04-12T08:09:13.537Z,7.30
2023-04-12T08:11:40.236Z,7.30
2023-04-12T08:14:06.922Z,7.40
2023-04-12T08:16:33.693Z,7.40
2023-04-12T08:19:00.447Z,7.40
2023-04-12T08:21:27.693Z,7.40
2023-04-12T08:23:54.345Z,7.40
2023-04-12T08:26:21.164Z,7.50
2023-04-12T08:28:48.591Z,7.50
2023-04-12T08:31:16.402Z,7.50
2023-04-12T08:33:43.121Z,7.60
2023-04-12T08:36:10.317Z,7.60
2023-04-12T08:38:45.588Z,7.60
2023-04-12T08:41:14.020Z,7.60
2023-04-12T08:43:45.314Z,7.60
2023-04-12T08:46:15.614Z,7.70
2023-04-12T08:48:47.007Z,7.70
2023-04-12T08:51:16.438Z,7.70
2023-04-12T08:53:43.379Z,7.80
2023-04-12T08:56:12.003Z,7.80
2023-04-12T08:58:45.519Z,7.70
2023-04-12T09:01:14.162Z,7.70
2023-04-12T09:03:44.667Z,7.70
2023-04-12T09:06:12.935Z,7.70
2023-04-12T09:08:56.065Z,7.70
2023-04-12T09:11:28.981Z,7.80
2023-04-12T09:13:57.659Z,7.70
2023-04-12T09:16:35.533Z,7.80
2023-04-12T09:19:05.223Z,7.80
2023-04-12T09:21:35.933Z,7.80
2023-04-12T09:24:14.222Z,7.80
2023-04-12T09:26:42.086Z,7.90
2023-04-12T09:29:27.883Z,7.90
2023-04-12T09:32:04.316Z,8.00
2023-04-12T09:34:32.337Z,8.00
2023-04-12T09:36:59.570Z,8.00
2023-04-12T09:39:35.860Z,8.00
2023-04-12T09:42:25.598Z,8.00
2023-04-12T09:44:58.744Z,8.00
2023-04-12T09:47:40.192Z,8.00
2023-04-12T09:50:10.009Z,8.10
2023-04-12T09:52:38.348Z,8.10
2023-04-12T09:55:10.482Z,8.10
2023-04-12T09:57:42.353Z,8.10
2023-04-12T10:00:18.286Z,8.20
2023-04-12T10:02:48.134Z,8.20
2023-04-12T10:05:21.236Z,8.30
2023-04-12T10:07:48.402Z,8.40
2023-04-12T10:10:18.551Z,8.50
2023-04-12T10:12:47.448Z,8.60
2023-04-12T10:15:17.892Z,8.60
2023-04-12T10:17:54.607Z,8.70
2023-04-12T10:20:24.824Z,8.70
2023-04-12T10:22:54.163Z,8.80
2023-04-12T10:25:23.108Z,8.80
2023-04-12T10:27:49.937Z,8.90
2023-04-12T10:30:24.405Z,9.00
2023-04-12T10:33:14.714Z,9.30
2023-04-12T10:36:03.481Z,9.80
2023-04-12T10:38:37.339Z,10.10
2023-04-12T10:41:18.383Z,10.20
2023-04-12T10:43:45.085Z,10.30
2023-04-12T10:46:38.172Z,10.20
2023-04-12T10:49:09.592Z,10.10
2023-04-12T10:51:36.586Z,10.10
2023-04-12T10:54:09.547Z,10.10
2023-04-12T10:56:44.013Z,10.00
2023-04-12T10:59:11.728Z,10.10
2023-04-12T11:01:39.600Z,10.30
2023-04-12T11:04:20.309Z,10.50
2023-04-12T11:06:53.829Z,10.60
2023-04-12T11:09:22.105Z,10.60
2023-04-12T11:11:49.741Z,10.60
2023-04-12T11:14:17.134Z,10.60
2023-04-12T11:17:05.986Z,10.60
2023-04-12T11:19:34.404Z,10.80
2023-04-12T11:22:05.214Z,11.10
2023-04-12T11:24:32.375Z,11.50
2023-04-12T11:26:59.932Z,12.00
2023-04-12T11:29:29.339Z,12.30
2023-04-12T11:31:56.191Z,12.50
2023-04-12T11:34:25.121Z,12.20
2023-04-12T11:36:55.353Z,11.90
2023-04-12T11:39:22.144Z,11.90
2023-04-12T11:41:49.435Z,11.90
2023-04-12T11:44:21.786Z,12.10
2023-04-12T11:46:51.757Z,12.10
2023-04-12T11:49:20.853Z,12.30
2023-04-12T11:51:49.560Z,12.50
2023-04-12T11:54:16.500Z,12.60
2023-04-12T11:56:43.193Z,12.80
2023-04-12T11:59:09.879Z,12.80
2023-04-12T12:01:37.773Z,12.40
2023-04-12T12:04:05.749Z,12.50
2023-04-12T12:06:33.589Z,12.60
2023-04-12T12:09:01.024Z,12.60
2023-04-12T12:11:27.924Z,12.60
2023-04-12T12:13:55.970Z,12.70
2023-04-12T12:16:30.405Z,12.80
2023-04-12T12:18:57.895Z,13.00
2023-04-12T12:21:34.589Z,13.20
2023-04-12T12:24:02.339Z,13.10
2023-04-12T12:26:32.546Z,13.10
2023-04-12T12:29:00.557Z,13.30
2023-04-12T12:31:28.970Z,13.20
2023-04-12T12:33:57.490Z,13.20
2023-04-12T12:36:32.794Z,13.30
2023-04-12T12:39:05.624Z,13.40
2023-04-12T12:41:32.395Z,13.50
2023-04-12T12:44:00.739Z,13.60
2023-04-12T12:46:37.362Z,13.90
2023-04-12T12:49:14.093Z,13.90
2023-04-12T12:51:42.638Z,13.90
2023-04-12T12:54:09.829Z,13.70
2023-04-12T12:56:36.631Z,13.50
2023-04-12T12:59:03.445Z,13.40
2023-04-12T13:01:30.159Z,13.30
2023-04-12T13:03:58.881Z,13.00
2023-04-12T13:06:28.298Z,13.00
2023-04-12T13:08:55.830Z,13.10
2023-04-12T13:11:22.763Z,13.10
2023-04-12T13:13:49.708Z,13.00
2023-04-12T13:16:16.728Z,13.00
2023-04-12T13:18:43.707Z,13.10
2023-04-12T13:21:10.569Z,13.20
2023-04-12T13:23:37.334Z,13.20
2023-04-12T13:26:04.370Z,13.20
2023-04-12T13:28:31.286Z,13.10
2023-04-12T13:30:57.982Z,13.10
2023-04-12T13:33:24.797Z,13.00
2023-04-12T13:35:51.462Z,12.90
2023-04-12T13:38:20.432Z,12.80
2023-04-12T13:40:47.151Z,12.70
2023-04-12T13:43:14.111Z,12.50
2023-04-12T13:45:41.591Z,12.60
2023-04-12T13:48:08.416Z,12.40
2023-04-12T13:50:35.310Z,12.20
2023-04-12T13:53:02.525Z,12.10
2023-04-12T13:55:36.927Z,11.90
2023-04-12T13:58:03.664Z,11.70
2023-04-12T14:00:30.479Z,11.30
2023-04-12T14:02:57.259Z,11.00
2023-04-12T14:05:24.191Z,10.80
2023-04-12T14:07:52.430Z,10.70
2023-04-12T14:10:19.161Z,10.70
2023-04-12T14:12:46.093Z,10.60
2023-04-12T14:15:13.307Z,10.60
2023-04-12T14:17:40.030Z,10.60
2023-04-12T14:20:10.472Z,10.50
2023-04-12T14:22:37.204Z,10.50
2023-04-12T14:25:04.921Z,10.50
2023-04-12T14:27:31.616Z,10.50
2023-04-12T14:29:58.342Z,10.40
2023-04-12T14:32:25.240Z,10.50
2023-04-12T14:34:52.209Z,10.60
2023-04-12T14:37:18.856Z,10.60
2023-04-12T14:39:45.657Z,10.50
2023-04-12T14:42:12.993Z,10.50
2023-04-12T14:44:39.677Z,10.50
2023-04-12T14:47:06.321Z,10.50
2023-04-12T14:49:33.543Z,10.50
2023-04-12T14:52:00.907Z,10.40
2023-04-12T14:54:27.628Z,10.60
2023-04-12T14:56:56.134Z,10.70
2023-04-12T14:59:23.312Z,11.00
2023-04-12T15:01:52.418Z,11.00
2023-04-12T15:04:19.670Z,11.10
2023-04-12T15:06:46.418Z,11.30
2023-04-12T15:09:15.662Z,11.50
2023-04-12T15:11:47.165Z,11.30
2023-04-12T15:14:20.876Z,11.40
2023-04-12T15:16:49.229Z,11.50
2023-04-12T15:19:21.176Z,11.60
2023-04-12T15:21:51.220Z,11.60
2023-04-12T15:24:22.522Z,11.70
2023-04-12T15:26:50.795Z,11.60
2023-04-12T15:29:18.571Z,11.50
2023-04-12T15:31:45.843Z,11.50
2023-04-12T15:34:13.357Z,11.40
2023-04-12T15:36:41.113Z,11.30
2023-04-12T15:39:07.776Z,11.20
2023-04-12T15:41:38.108Z,11.20
2023-04-12T15:44:05.948Z,11.30
2023-04-12T15:46:33.003Z,11.10
2023-04-12T15:49:00.114Z,11.10
2023-04-12T15:51:27.875Z,11.10
2023-04-12T15:53:55.710Z,11.00
2023-04-12T15:56:25.574Z,11.00
2023-04-12T15:58:53.821Z,10.90
2023-04-12T16:01:20.589Z,10.80
2023-04-12T16:03:49.149Z,10.70
2023-04-12T16:06:20.027Z,10.60
2023-04-12T16:08:51.692Z,10.60
2023-04-12T16:11:21.523Z,10.60
2023-04-12T16:13:49.696Z,10.60
2023-04-12T16:16:17.879Z,10.70
2023-04-12T16:18:45.591Z,10.50
2023-04-12T16:21:16.578Z,10.50
2023-04-12T16:23:44.368Z,10.50
2023-04-12T16:26:12.144Z,10.40
2023-04-12T16:28:39.541Z,10.40
2023-04-12T16:31:06.856Z,10.40
2023-04-12T16:33:33.563Z,10.30
2023-04-12T16:36:01.480Z,10.30
2023-04-12T16:38:28.142Z,10.30
2023-04-12T16:40:54.762Z,10.30
2023-04-12T16:43:21.463Z,10.30
2023-04-12T16:45:49.266Z,10.20
2023-04-12T16:48:16.102Z,10.10
2023-04-12T16:50:47.384Z,10.10
2023-04-12T16:53:15.653Z,10.10
2023-04-12T16:55:43.965Z,10.00
2023-04-12T16:58:14.320Z,9.90
2023-04-12T17:00:43.044Z,9.80
2023-04-12T17:03:11.561Z,9.70
2023-04-12T17:05:40.097Z,9.60
2023-04-12T17:08:09.471Z,9.60
2023-04-12T17:10:36.786Z,9.70
2023-04-12T17:13:04.413Z,9.50
2023-04-12T17:15:31.380Z,9.50
2023-04-12T17:18:03.301Z,9.50
2023-04-12T17:20:30.714Z,9.50
2023-04-12T17:23:00.689Z,9.40
2023-04-12T17:25:31.201Z,9.30
2023-04-12T17:28:01.917Z,9.30
2023-04-12T17:30:29.061Z,9.20
2023-04-12T17:32:56.520Z,9.20
2023-04-12T17:35:23.250Z,9.20
2023-04-12T17:37:51.327Z,9.10
2023-04-12T17:40:18.373Z,9.10
2023-04-12T17:42:45.269Z,9.10
2023-04-12T17:45:14.337Z,9.20
2023-04-12T17:47:41.882Z,9.30
2023-04-12T17:50:10.653Z,9.20
2023-04-12T17:52:37.827Z,9.10
2023-04-12T17:55:05.753Z,9.20
2023-04-12T17:57:32.589Z,9.20
2023-04-12T17:59:59.489Z,9.20
2023-04-12T18:02:26.694Z,9.30
2023-04-12T18:04:53.557Z,9.30
2023-04-12T18:07:20.731Z,9.30
2023-04-12T18:09:48.206Z,9.20
2023-04-12T18:12:14.956Z,9.20
2023-04-12T18:14:41.690Z,9.30
2023-04-12T18:17:08.612Z,9.20
2023-04-12T18:19:36.327Z,9.20
2023-04-12T18:22:03.496Z,9.10
2023-04-12T18:24:30.459Z,9.00
2023-04-12T18:26:59.135Z,9.00
2023-04-12T18:29:26.302Z,9.00
2023-04-12T18:31:53.148Z,8.80
2023-04-12T18:34:20.018Z,8.90
2023-04-12T18:36:47.641Z,8.80
2023-04-12T18:39:14.657Z,8.70
2023-04-12T18:41:41.425Z,8.70
2023-04-12T18:44:09.184Z,8.60
2023-04-12T18:46:36.240Z,8.50
2023-04-12T18:49:04.550Z,8.50
2023-04-12T18:51:32.721Z,8.50
2023-04-12T18:54:00.250Z,8.40
2023-04-12T18:56:27.798Z,8.30
2023-04-12T18:58:56.337Z,8.30
2023-04-12T19:01:24.734Z,8.20
2023-04-12T19:03:51.899Z,8.20
2023-04-12T19:06:18.918Z,8.10
2023-04-12T19:08:45.665Z,8.00
2023-04-12T19:11:12.370Z,8.00
2023-04-12T19:13:39.035Z,7.90
2023-04-12T19:16:08.999Z,7.90
2023-04-12T19:18:36.148Z,7.80
2023-04-12T19:21:03.355Z,7.70
2023-04-12T19:23:31.367Z,7.70
2023-04-12T19:26:00.149Z,7.60
2023-04-12T19:28:27.729Z,7.60
2023-04-12T19:30:54.974Z,7.60
2023-04-12T19:33:21.750Z,7.50
2023-04-12T19:35:48.595Z,7.50
2023-04-12T19:38:17.842Z,7.40
2023-04-12T19:40:44.449Z,7.40
2023-04-12T19:43:14.088Z,7.40
2023-04-12T19:45:42.374Z,7.30
2023-04-12T19:48:09.413Z,7.20
2023-04-12T19:50:36.346Z,7.20
2023-04-12T19:53:03.213Z,7.10
2023-04-12T19:55:30.450Z,7.10
2023-04-12T19:57:58.090Z,7.60
2023-04-12T20:00:25.429Z,7.00
2023-04-12T20:02:53.926Z,7.00
2023-04-12T20:05:22.474Z,7.00
2023-04-12T20:07:49.729Z,6.90
2023-04-12T20:10:17.051Z,6.90
2023-04-12T20:12:44.356Z,6.80
2023-04-12T20:15:11.855Z,6.80
2023-04-12T20:17:43.924Z,6.70
2023-04-12T20:20:12.494Z,6.70
2023-04-12T20:22:41.096Z,6.70
2023-04-12T20:25:10.623Z,6.60
2023-04-12T20:27:37.867Z,6.60
2023-04-12T20:30:05.698Z,6.60
2023-04-12T20:32:33.487Z,6.60
2023-04-12T20:35:01.317Z,6.50
2023-04-12T20:37:28.022Z,6.50
2023-04-12T20:39:54.699Z,6.40
2023-04-12T20:42:22.839Z,6.40
2023-04-12T20:44:49.682Z,6.40
2023-04-12T20:47:17.954Z,6.30
2023-04-12T20:49:46.080Z,6.30
2023-04-12T20:52:16.835Z,6.30
2023-04-12T20:54:45.481Z,6.30
2023-04-12T20:57:13.077Z,6.30
2023-04-12T20:59:39.836Z,6.30
2023-04-12T21:02:07.148Z,6.20
2023-04-12T21:04:36.448Z,6.20
2023-04-12T21:07:03.565Z,6.20
2023-04-12T21:09:30.411Z,6.10
2023-04-12T21:11:57.935Z,6.20
2023-04-12T21:14:24.765Z,6.10
2023-04-12T21:16:52.523Z,6.00
2023-04-12T21:19:19.378Z,6.00
2023-04-12T21:21:46.288Z,6.00
2023-04-12T21:24:13.678Z,5.90
2023-04-12T21:26:42.176Z,5.90
2023-04-12T21:29:08.858Z,5.80
2023-04-12T21:31:39.018Z,5.80
2023-04-12T21:34:07.097Z,5.80
2023-04-12T21:36:34.216Z,5.80
2023-04-12T21:39:01.214Z,5.70
2023-04-12T21:41:29.640Z,5.80
2023-04-12T21:43:56.699Z,5.40
2023-04-12T21:46:28.163Z,5.70
2023-04-12T21:48:54.910Z,5.70
2023-04-12T21:51:23.460Z,5.70
2023-04-12T21:53:50.111Z,5.70
2023-04-12T21:56:16.718Z,5.60
2023-04-12T21:58:43.391Z,5.60
2023-04-12T22:01:10.421Z,5.70
2023-04-12T22:03:37.254Z,5.70
2023-04-12T22:06:05.349Z,5.70
2023-04-12T22:08:33.012Z,5.70
2023-04-12T22:11:00.406Z,5.70
2023-04-12T22:13:27.553Z,5.70
2023-04-12T22:15:54.249Z,5.60
2023-04-12T22:18:20.941Z,5.60
2023-04-12T22:20:47.873Z,5.60
2023-04-12T22:23:17.911Z,5.60
2023-04-12T22:25:45.592Z,5.60
2023-04-12T22:28:12.376Z,5.50
2023-04-12T22:30:39.414Z,5.50
2023-04-12T22:33:08.346Z,5.40
2023-04-12T22:35:36.292Z,5.40
2023-04-12T22:38:04.115Z,5.30
2023-04-12T22:40:30.823Z,5.30
2023-04-12T22:42:58.090Z,5.30
2023-04-12T22:45:24.886Z,5.30
2023-04-12T22:47:52.625Z,5.30
2023-04-12T22:50:19.696Z,5.20
2023-04-12T22:52:49.531Z,5.20
2023-04-12T22:55:18.051Z,5.20
2023-04-12T22:57:45.027Z,5.20
2023-04-12T23:00:16.935Z,5.10
2023-04-12T23:02:46.107Z,5.10
2023-04-12T23:05:13.921Z,5.10
2023-04-12T23:07:41.391Z,5.10
2023-04-12T23:10:08.845Z,5.00
2023-04-12T23:12:37.428Z,5.00
2023-04-12T23:15:06.384Z,5.00
2023-04-12T23:17:33.774Z,5.00
2023-04-12T23:20:01.959Z,5.00
2023-04-12T23:22:55.185Z,5.00
2023-04-12T23:25:38.703Z,5.00
2023-04-12T23:28:13.846Z,5.00
2023-04-12T23:30:47.737Z,5.00
2023-04-12T23:33:18.863Z,5.00
2023-04-12T23:35:46.705Z,5.00
2023-04-12T23:38:23.166Z,5.00
2023-04-12T23:40:53.888Z,4.90
2023-04-12T23:43:22.047Z,4.80
2023-04-12T23:45:49.232Z,4.90
2023-04-12T23:48:16.593Z,4.80
2023-04-12T23:50:45.645Z,4.80
2023-04-12T23:53:13.107Z,4.90
2023-04-12T23:55:41.437Z,4.80
2023-04-12T23:58:08.459Z,4.80
